Time;durP1;ratioP1;P1;durP2;ratioP2;P2;SDS_P1;SDS_P2;PMS_P1;PMS_P2;Temp;Humidity;BMP_temperature;BMP_pressure;BME280_temperature;BME280_humidity;BME280_pressure;Samples;Min_cycle;Max_cycle;Signal;HPM_P1;HPM_P2
2023/05/09 00:02:18;;;;;;;7.38;4.80;;;;;;;;;;4985925;28;20441;-79
2023/05/09 00:04:44;;;;;;;6.23;4.17;;;;;;;;;;4992333;28;20426;-79
2023/05/09 00:07:10;;;;;;;5.18;4.45;;;;;;;;;;4988874;28;20427;-79
2023/05/09 00:09:38;;;;;;;6.63;4.18;;;;;;;;;;4980389;28;20901;-79
2023/05/09 00:12:05;;;;;;;7.35;4.20;;;;;;;;;;4994535;28;20948;-79
2023/05/09 00:14:32;;;;;;;7.60;4.30;;;;;;;;;;4976719;28;20469;-79
2023/05/09 00:16:59;;;;;;;6.07;4.80;;;;;;;;;;4993247;28;20426;-79
2023/05/09 00:19:25;;;;;;;7.40;4.90;;;;;;;;;;4990990;28;20422;-79
2023/05/09 00:21:52;;;;;;;6.03;4.85;;;;;;;;;;4987571;28;20422;-79
2023/05/09 00:24:19;;;;;;;5.40;4.90;;;;;;;;;;4993175;28;20414;-79
2023/05/09 00:26:47;;;;;;;5.90;4.50;;;;;;;;;;4993683;28;20414;-79
2023/05/09 00:29:13;;;;;;;7.70;4.60;;;;;;;;;;4990432;28;20442;-79
2023/05/09 00:31:41;;;;;;;7.55;4.80;;;;;;;;;;4993409;28;20418;-79
2023/05/09 00:34:08;;;;;;;7.35;4.70;;;;;;;;;;4991942;28;20445;-79
2023/05/09 00:36:34;;;;;;;7.30;4.97;;;;;;;;;;4988482;28;20419;-79
2023/05/09 00:39:01;;;;;;;6.20;4.65;;;;;;;;;;4991863;28;20414;-79
2023/05/09 00:41:27;;;;;;;7.07;4.30;;;;;;;;;;4991845;28;20434;-79
2023/05/09 00:43:55;;;;;;;7.83;4.53;;;;;;;;;;4992751;28;20909;-79
2023/05/09 00:46:21;;;;;;;5.13;3.85;;;;;;;;;;4989493;28;20769;-79
2023/05/09 00:48:49;;;;;;;6.10;4.13;;;;;;;;;;4992863;28;20429;-79
2023/05/09 00:51:15;;;;;;;5.72;3.90;;;;;;;;;;4989371;28;20442;-78
2023/05/09 00:53:42;;;;;;;5.68;4.30;;;;;;;;;;4992938;28;20913;-79
2023/05/09 00:56:09;;;;;;;4.43;4.03;;;;;;;;;;4992397;28;20414;-79
2023/05/09 00:58:35;;;;;;;6.10;4.40;;;;;;;;;;4992911;28;20422;-79
2023/05/09 01:01:04;;;;;;;6.68;4.40;;;;;;;;;;4986691;28;20427;-79
2023/05/09 01:03:31;;;;;;;5.32;4.82;;;;;;;;;;4994424;28;20502;-78
2023/05/09 01:06:02;;;;;;;8.20;5.20;;;;;;;;;;4980789;28;20431;-79
2023/05/09 01:08:38;;;;;;;7.40;5.00;;;;;;;;;;4991230;28;20421;-79
2023/05/09 01:11:09;;;;;;;7.17;5.23;;;;;;;;;;4991604;28;20457;-79
2023/05/09 01:13:41;;;;;;;5.10;4.50;;;;;;;;;;4992100;28;20488;-79
2023/05/09 01:16:14;;;;;;;5.50;4.68;;;;;;;;;;4992001;28;20415;-78
2023/05/09 01:18:43;;;;;;;4.90;4.40;;;;;;;;;;4992660;28;20451;-79
2023/05/09 01:21:11;;;;;;;9.65;4.60;;;;;;;;;;4985052;28;20419;-79
2023/05/09 01:23:52;;;;;;;5.93;4.40;;;;;;;;;;4991960;28;20419;-79
2023/05/09 01:26:21;;;;;;;5.13;4.00;;;;;;;;;;4947087;28;20942;-79
2023/05/09 01:29:05;;;;;;;7.47;4.95;;;;;;;;;;4993237;28;20433;-79
2023/05/09 01:31:34;;;;;;;4.80;4.35;;;;;;;;;;4990757;28;20994;-79
2023/05/09 01:34:02;;;;;;;8.00;4.35;;;;;;;;;;4994923;28;20420;-79
2023/05/09 01:36:31;;;;;;;6.00;4.30;;;;;;;;;;4990765;28;20418;-79
2023/05/09 01:38:58;;;;;;;6.03;4.22;;;;;;;;;;4986266;28;20426;-79
2023/05/09 01:41:25;;;;;;;6.30;4.35;;;;;;;;;;4990812;28;20800;-79
2023/05/09 01:43:52;;;;;;;8.95;4.75;;;;;;;;;;4991639;28;20896;-79
2023/05/09 01:46:19;;;;;;;7.70;4.80;;;;;;;;;;4990516;28;20423;-79
2023/05/09 01:48:48;;;;;;;5.22;4.22;;;;;;;;;;4992069;28;20419;-79
2023/05/09 01:51:14;;;;;;;10.75;4.35;;;;;;;;;;4991461;28;20441;-79
2023/05/09 01:53:42;;;;;;;7.18;4.20;;;;;;;;;;4987647;28;20429;-79
2023/05/09 01:56:09;;;;;;;6.60;4.60;;;;;;;;;;4987852;28;20425;-79
2023/05/09 01:58:36;;;;;;;5.07;3.92;;;;;;;;;;4986299;28;20434;-79
2023/05/09 02:01:03;;;;;;;7.70;4.10;;;;;;;;;;4988715;28;20789;-79
2023/05/09 02:03:32;;;;;;;4.90;3.97;;;;;;;;;;4987256;28;20906;-79
2023/05/09 02:06:01;;;;;;;5.25;4.00;;;;;;;;;;4991311;28;20434;-78
2023/05/09 02:08:27;;;;;;;4.70;4.10;;;;;;;;;;4992125;28;20422;-79
2023/05/09 02:10:53;;;;;;;4.13;3.72;;;;;;;;;;4989968;28;20418;-79
2023/05/09 02:13:20;;;;;;;5.05;4.55;;;;;;;;;;4991582;28;20419;-80
2023/05/09 02:15:46;;;;;;;7.00;4.00;;;;;;;;;;4986891;28;20423;-79
2023/05/09 02:18:13;;;;;;;7.15;3.42;;;;;;;;;;4984638;28;20435;-79
2023/05/09 02:20:39;;;;;;;5.82;4.10;;;;;;;;;;4991386;28;20426;-79
2023/05/09 02:23:07;;;;;;;6.32;4.03;;;;;;;;;;4990043;28;20429;-79
2023/05/09 02:25:33;;;;;;;6.00;4.63;;;;;;;;;;4991491;28;20429;-79
2023/05/09 02:28:00;;;;;;;7.77;3.90;;;;;;;;;;4993699;28;20440;-79
2023/05/09 02:30:29;;;;;;;5.43;4.17;;;;;;;;;;4991045;28;20510;-79
2023/05/09 02:32:59;;;;;;;3.97;3.57;;;;;;;;;;4993057;28;20454;-79
2023/05/09 02:35:27;;;;;;;5.60;3.30;;;;;;;;;;4993436;28;21015;-79
2023/05/09 02:37:53;;;;;;;3.53;3.23;;;;;;;;;;4991436;28;20980;-79
2023/05/09 02:40:22;;;;;;;3.80;3.40;;;;;;;;;;4992505;28;20490;-79
2023/05/09 02:42:48;;;;;;;7.70;3.73;;;;;;;;;;4993047;28;20466;-79
2023/05/09 02:45:14;;;;;;;4.73;3.57;;;;;;;;;;4991010;28;20474;-79
2023/05/09 02:47:41;;;;;;;5.43;3.70;;;;;;;;;;4991831;28;20494;-79
2023/05/09 02:50:09;;;;;;;6.70;3.30;;;;;;;;;;4988449;28;20478;-79
2023/05/09 02:52:35;;;;;;;5.13;4.10;;;;;;;;;;4986147;28;20945;-79
2023/05/09 02:55:02;;;;;;;5.63;4.17;;;;;;;;;;4995830;28;20475;-79
2023/05/09 02:57:30;;;;;;;5.57;3.53;;;;;;;;;;5001096;28;20801;-79
2023/05/09 02:59:56;;;;;;;6.00;3.30;;;;;;;;;;4995426;28;20521;-79
2023/05/09 03:02:23;;;;;;;5.67;3.70;;;;;;;;;;4998279;28;20449;-79
2023/05/09 03:04:49;;;;;;;4.30;3.43;;;;;;;;;;4989973;28;20852;-79
2023/05/09 03:07:16;;;;;;;3.83;3.43;;;;;;;;;;4996408;28;20455;-79
2023/05/09 03:09:45;;;;;;;6.40;3.20;;;;;;;;;;4995194;28;20482;-79
2023/05/09 03:12:11;;;;;;;4.60;3.60;;;;;;;;;;4996716;28;20465;-79
2023/05/09 03:14:39;;;;;;;5.13;3.67;;;;;;;;;;4995439;28;20478;-79
2023/05/09 03:17:05;;;;;;;6.40;3.33;;;;;;;;;;4998914;28;20469;-79
2023/05/09 03:19:32;;;;;;;4.77;4.03;;;;;;;;;;4993180;28;20470;-79
2023/05/09 03:21:58;;;;;;;4.87;3.20;;;;;;;;;;4996826;28;20454;-79
2023/05/09 03:24:27;;;;;;;6.33;4.00;;;;;;;;;;4995127;28;20450;-79
2023/05/09 03:26:53;;;;;;;5.10;3.60;;;;;;;;;;5001174;28;20466;-79
2023/05/09 03:29:20;;;;;;;4.23;3.83;;;;;;;;;;4991744;28;20471;-79
2023/05/09 03:31:48;;;;;;;5.07;3.80;;;;;;;;;;4995781;28;20500;-79
2023/05/09 03:34:14;;;;;;;4.33;3.67;;;;;;;;;;4990561;28;20461;-80
2023/05/09 03:36:42;;;;;;;4.60;3.67;;;;;;;;;;4995498;28;20481;-79
2023/05/09 03:39:08;;;;;;;6.63;3.97;;;;;;;;;;4995489;28;20551;-79
2023/05/09 03:41:35;;;;;;;4.70;4.03;;;;;;;;;;4986852;28;20896;-79
2023/05/09 03:44:02;;;;;;;7.67;4.37;;;;;;;;;;4987514;28;20958;-79
2023/05/09 03:46:28;;;;;;;4.47;4.07;;;;;;;;;;4988587;28;20474;-79
2023/05/09 03:48:56;;;;;;;4.57;4.17;;;;;;;;;;4995188;28;20478;-79
2023/05/09 03:51:22;;;;;;;7.37;3.70;;;;;;;;;;4994582;28;20482;-80
2023/05/09 03:53:48;;;;;;;6.10;4.10;;;;;;;;;;4995080;28;20830;-78
2023/05/09 03:56:15;;;;;;;8.20;4.80;;;;;;;;;;4994700;28;20474;-79
2023/05/09 03:58:41;;;;;;;4.73;4.03;;;;;;;;;;4991335;28;20478;-78
2023/05/09 04:01:08;;;;;;;4.30;3.90;;;;;;;;;;4993570;28;21099;-79
2023/05/09 04:03:35;;;;;;;4.33;3.67;;;;;;;;;;4987771;28;20458;-79
2023/05/09 04:06:03;;;;;;;6.23;4.40;;;;;;;;;;4991805;28;21138;-79
2023/05/09 04:08:30;;;;;;;5.33;4.40;;;;;;;;;;4992975;28;20478;-79
2023/05/09 04:10:56;;;;;;;7.43;4.07;;;;;;;;;;4993831;28;20857;-79
2023/05/09 04:13:22;;;;;;;6.10;4.03;;;;;;;;;;4994784;28;20884;-79
2023/05/09 04:15:48;;;;;;;5.70;4.13;;;;;;;;;;4994306;28;20485;-79
2023/05/09 04:18:15;;;;;;;5.00;3.90;;;;;;;;;;4994937;28;20463;-79
2023/05/09 04:20:41;;;;;;;5.87;4.20;;;;;;;;;;4994023;28;20470;-79
2023/05/09 04:23:09;;;;;;;4.90;4.30;;;;;;;;;;4992294;28;20877;-79
2023/05/09 04:25:36;;;;;;;11.90;4.60;;;;;;;;;;4994187;28;21010;-79
2023/05/09 04:28:02;;;;;;;5.67;3.93;;;;;;;;;;4990142;28;20473;-79
2023/05/09 04:30:28;;;;;;;8.97;5.20;;;;;;;;;;4994009;28;20486;-79
2023/05/09 04:32:55;;;;;;;9.07;4.93;;;;;;;;;;4994307;28;20450;-79
2023/05/09 04:35:22;;;;;;;5.27;4.20;;;;;;;;;;4991243;28;20861;-79
2023/05/09 04:37:49;;;;;;;7.80;4.80;;;;;;;;;;4994260;28;20467;-79
2023/05/09 04:40:17;;;;;;;5.30;4.10;;;;;;;;;;4993586;28;20475;-79
2023/05/09 04:42:43;;;;;;;6.20;4.10;;;;;;;;;;4994273;28;20455;-79
2023/05/09 04:45:11;;;;;;;5.87;4.23;;;;;;;;;;4991633;28;20473;-79
2023/05/09 04:47:37;;;;;;;4.40;3.97;;;;;;;;;;4990930;28;20447;-79
2023/05/09 04:50:04;;;;;;;6.03;4.50;;;;;;;;;;4993723;28;20478;-79
2023/05/09 04:52:30;;;;;;;7.67;3.90;;;;;;;;;;4992997;28;20477;-79
2023/05/09 04:54:57;;;;;;;6.77;4.17;;;;;;;;;;4993796;28;20474;-79
2023/05/09 04:57:24;;;;;;;4.87;4.17;;;;;;;;;;4988560;28;20451;-79
2023/05/09 04:59:51;;;;;;;4.17;3.77;;;;;;;;;;4989090;28;20474;-79
2023/05/09 05:02:18;;;;;;;7.27;4.53;;;;;;;;;;4989188;28;20888;-79
2023/05/09 05:04:44;;;;;;;7.43;4.30;;;;;;;;;;4987687;28;20470;-79
2023/05/09 05:07:12;;;;;;;4.33;3.63;;;;;;;;;;4993964;28;20451;-79
2023/05/09 05:09:38;;;;;;;7.00;3.93;;;;;;;;;;4993599;28;20489;-79
2023/05/09 05:12:06;;;;;;;5.93;3.97;;;;;;;;;;4991613;28;20479;-79
2023/05/09 05:14:34;;;;;;;8.80;4.50;;;;;;;;;;4992288;28;20517;-79
2023/05/09 05:17:01;;;;;;;9.73;5.10;;;;;;;;;;4997132;28;20453;-79
2023/05/09 05:19:27;;;;;;;5.37;4.53;;;;;;;;;;4990316;28;20473;-79
2023/05/09 05:21:53;;;;;;;8.23;4.23;;;;;;;;;;4993660;28;20960;-79
2023/05/09 05:24:20;;;;;;;4.90;4.03;;;;;;;;;;4991723;28;21032;-79
2023/05/09 05:26:46;;;;;;;4.93;4.40;;;;;;;;;;4993662;28;20442;-79
2023/05/09 05:29:13;;;;;;;10.47;4.67;;;;;;;;;;4992484;28;20482;-79
2023/05/09 05:31:40;;;;;;;7.23;4.27;;;;;;;;;;4992283;28;20481;-79
2023/05/09 05:34:07;;;;;;;4.17;3.77;;;;;;;;;;4992971;28;20461;-79
2023/05/09 05:36:33;;;;;;;6.00;4.47;;;;;;;;;;4992861;28;20478;-79
2023/05/09 05:39:00;;;;;;;5.20;4.40;;;;;;;;;;4988005;28;20466;-78
2023/05/09 05:41:26;;;;;;;6.63;5.33;;;;;;;;;;4992719;28;21008;-79
2023/05/09 05:43:53;;;;;;;5.77;4.10;;;;;;;;;;4993695;28;21114;-79
2023/05/09 05:46:19;;;;;;;8.10;4.93;;;;;;;;;;4992390;28;20467;-79
2023/05/09 05:48:47;;;;;;;7.23;5.00;;;;;;;;;;4991942;28;20478;-79
2023/05/09 05:51:13;;;;;;;5.83;5.20;;;;;;;;;;4991873;28;21026;-79
2023/05/09 05:53:39;;;;;;;6.67;4.57;;;;;;;;;;4989365;28;20462;-79
2023/05/09 05:56:06;;;;;;;14.90;5.77;;;;;;;;;;4992825;28;20470;-79
2023/05/09 05:58:32;;;;;;;7.70;5.97;;;;;;;;;;4993340;28;20466;-79
2023/05/09 06:00:58;;;;;;;9.33;5.87;;;;;;;;;;4995876;28;20474;-79
2023/05/09 06:03:25;;;;;;;10.07;6.07;;;;;;;;;;4990113;28;20461;-78
2023/05/09 06:05:53;;;;;;;15.00;5.97;;;;;;;;;;4991549;28;20513;-78
2023/05/09 06:08:19;;;;;;;11.33;5.90;;;;;;;;;;4990746;28;20474;-79
2023/05/09 06:10:49;;;;;;;8.77;6.63;;;;;;;;;;4983784;28;20479;-79
2023/05/09 06:13:15;;;;;;;10.80;7.10;;;;;;;;;;4988236;28;20448;-79
2023/05/09 06:15:43;;;;;;;16.73;7.60;;;;;;;;;;4988858;28;20471;-79
2023/05/09 06:18:09;;;;;;;12.53;7.53;;;;;;;;;;4992381;28;21030;-79
2023/05/09 06:20:35;;;;;;;16.03;7.20;;;;;;;;;;4990026;28;20478;-79
2023/05/09 06:23:03;;;;;;;9.23;7.90;;;;;;;;;;4988108;28;20454;-79
2023/05/09 06:25:31;;;;;;;16.23;7.97;;;;;;;;;;4991424;28;20477;-79
2023/05/09 06:27:57;;;;;;;9.70;7.23;;;;;;;;;;4993996;28;20470;-79
2023/05/09 06:30:23;;;;;;;15.60;8.97;;;;;;;;;;4995949;28;20482;-79
2023/05/09 06:32:50;;;;;;;10.83;7.57;;;;;;;;;;4996803;28;20501;-78
2023/05/09 06:35:16;;;;;;;12.00;7.63;;;;;;;;;;4993205;28;20540;-78
2023/05/09 06:37:42;;;;;;;12.90;8.37;;;;;;;;;;4994927;28;20477;-79
2023/05/09 06:40:10;;;;;;;16.93;8.97;;;;;;;;;;4995830;28;20470;-79
2023/05/09 06:42:37;;;;;;;11.20;7.57;;;;;;;;;;4996474;28;20478;-80
2023/05/09 06:45:03;;;;;;;12.50;8.63;;;;;;;;;;4996313;28;20932;-79
2023/05/09 06:47:30;;;;;;;14.53;8.63;;;;;;;;;;4996643;28;20451;-79
2023/05/09 06:49:56;;;;;;;14.60;9.90;;;;;;;;;;5008160;28;20473;-79
2023/05/09 06:52:22;;;;;;;13.87;8.40;;;;;;;;;;4996530;28;21003;-79
2023/05/09 06:54:50;;;;;;;18.87;9.57;;;;;;;;;;4996472;28;20481;-79
2023/05/09 06:57:18;;;;;;;10.93;9.20;;;;;;;;;;4987713;28;20972;-79
2023/05/09 06:59:45;;;;;;;24.30;8.87;;;;;;;;;;4989646;28;20473;-79
2023/05/09 07:02:11;;;;;;;16.83;9.03;;;;;;;;;;4993093;28;20817;-79
2023/05/09 07:04:41;;;;;;;12.63;9.20;;;;;;;;;;4993614;28;20477;-79
2023/05/09 07:07:07;;;;;;;14.57;9.80;;;;;;;;;;4991154;28;20471;-79
2023/05/09 07:09:34;;;;;;;13.50;9.10;;;;;;;;;;4992350;28;20960;-78
2023/05/09 07:12:01;;;;;;;11.60;8.70;;;;;;;;;;4993548;28;20557;-79
2023/05/09 07:14:29;;;;;;;10.13;8.03;;;;;;;;;;4994387;28;20884;-77
2023/05/09 07:16:55;;;;;;;12.40;7.83;;;;;;;;;;4997155;28;20455;-79
2023/05/09 07:19:21;;;;;;;17.10;11.13;;;;;;;;;;4995090;28;20462;-79
2023/05/09 07:21:47;;;;;;;16.83;10.30;;;;;;;;;;4995028;28;20493;-79
2023/05/09 07:24:14;;;;;;;13.83;8.63;;;;;;;;;;4986865;28;20458;-77
2023/05/09 07:26:40;;;;;;;12.43;9.10;;;;;;;;;;4994589;28;20932;-78
2023/05/09 07:29:07;;;;;;;13.77;9.70;;;;;;;;;;4984741;28;20472;-77
2023/05/09 07:31:34;;;;;;;12.60;9.00;;;;;;;;;;4990560;28;20449;-77
2023/05/09 07:34:01;;;;;;;15.83;11.13;;;;;;;;;;4995908;28;20529;-78
2023/05/09 07:36:27;;;;;;;10.70;9.30;;;;;;;;;;4996112;28;21039;-77
2023/05/09 07:38:53;;;;;;;15.53;9.83;;;;;;;;;;4995347;28;20466;-80
2023/05/09 07:41:20;;;;;;;15.00;9.03;;;;;;;;;;4995078;28;20470;-78
2023/05/09 07:43:46;;;;;;;18.27;10.23;;;;;;;;;;4991430;28;20454;-78
2023/05/09 07:46:12;;;;;;;12.23;10.47;;;;;;;;;;4994990;28;20467;-78
2023/05/09 07:48:40;;;;;;;15.43;9.10;;;;;;;;;;4994292;28;20485;-79
2023/05/09 07:51:06;;;;;;;11.30;9.00;;;;;;;;;;4994947;28;20455;-77
2023/05/09 07:53:33;;;;;;;15.93;9.53;;;;;;;;;;4995579;28;20442;-79
2023/05/09 07:55:59;;;;;;;12.33;8.43;;;;;;;;;;4994718;28;20460;-79
2023/05/09 07:58:26;;;;;;;11.50;9.83;;;;;;;;;;4995293;28;20456;-79
2023/05/09 08:00:55;;;;;;;8.87;7.93;;;;;;;;;;4994715;28;20453;-77
2023/05/09 08:03:21;;;;;;;13.50;8.80;;;;;;;;;;4994848;28;20454;-77
2023/05/09 08:05:49;;;;;;;12.50;9.13;;;;;;;;;;5000929;28;20482;-78
2023/05/09 08:08:15;;;;;;;11.43;8.70;;;;;;;;;;4994019;28;20992;-77
2023/05/09 08:10:43;;;;;;;11.00;8.93;;;;;;;;;;4991851;28;20508;-77
2023/05/09 08:13:10;;;;;;;11.53;9.27;;;;;;;;;;4994930;28;20984;-80
2023/05/09 08:15:36;;;;;;;12.07;10.00;;;;;;;;;;4994820;28;20469;-77
2023/05/09 08:18:02;;;;;;;13.70;11.47;;;;;;;;;;4994736;28;20462;-78
2023/05/09 08:20:33;;;;;;;15.53;10.53;;;;;;;;;;4993464;28;20508;-77
2023/05/09 08:23:00;;;;;;;11.90;9.20;;;;;;;;;;4994263;28;20421;-77
2023/05/09 08:25:28;;;;;;;13.83;9.20;;;;;;;;;;4992854;28;20844;-77
2023/05/09 08:27:54;;;;;;;16.40;10.10;;;;;;;;;;4994195;28;20517;-77
2023/05/09 08:30:21;;;;;;;13.00;9.47;;;;;;;;;;4994198;28;20493;-78
2023/05/09 08:32:47;;;;;;;10.20;8.83;;;;;;;;;;4994502;28;20464;-78
2023/05/09 08:35:14;;;;;;;10.93;9.40;;;;;;;;;;4994354;28;20474;-78
2023/05/09 08:37:40;;;;;;;11.60;9.37;;;;;;;;;;4994838;28;20428;-77
2023/05/09 08:40:10;;;;;;;10.03;8.90;;;;;;;;;;4993811;28;20445;-78
2023/05/09 08:42:37;;;;;;;10.30;9.20;;;;;;;;;;4994133;28;20988;-78
2023/05/09 08:45:06;;;;;;;12.77;9.80;;;;;;;;;;4992839;28;20453;-78
2023/05/09 08:47:35;;;;;;;11.50;10.30;;;;;;;;;;4994227;28;20451;-77
2023/05/09 08:50:02;;;;;;;12.17;10.30;;;;;;;;;;4992327;28;20474;-78
2023/05/09 08:52:29;;;;;;;9.77;8.77;;;;;;;;;;4992871;28;20531;-78
2023/05/09 08:54:56;;;;;;;13.40;9.70;;;;;;;;;;4995271;28;20485;-78
2023/05/09 08:57:24;;;;;;;12.00;9.50;;;;;;;;;;4993780;28;20949;-77
2023/05/09 08:59:52;;;;;;;13.97;8.83;;;;;;;;;;4992508;28;20832;-78
2023/05/09 09:02:20;;;;;;;10.70;9.70;;;;;;;;;;4993121;28;20513;-78
2023/05/09 09:04:46;;;;;;;11.83;10.63;;;;;;;;;;4992582;28;20573;-78
2023/05/09 09:07:13;;;;;;;15.33;11.40;;;;;;;;;;4990583;28;20458;-78
2023/05/09 09:09:44;;;;;;;14.47;10.73;;;;;;;;;;4985976;28;20448;-78
2023/05/09 09:12:10;;;;;;;13.70;10.10;;;;;;;;;;4990316;28;20480;-78
2023/05/09 09:14:42;;;;;;;10.93;9.83;;;;;;;;;;4993359;28;20833;-78
2023/05/09 09:17:11;;;;;;;12.63;9.60;;;;;;;;;;4993420;28;20940;-78
2023/05/09 09:19:39;;;;;;;14.07;10.90;;;;;;;;;;4993194;28;20795;-78
2023/05/09 09:22:06;;;;;;;12.53;11.43;;;;;;;;;;4989374;28;20421;-78
2023/05/09 09:24:34;;;;;;;12.30;11.00;;;;;;;;;;4993397;28;20467;-78
2023/05/09 09:27:04;;;;;;;13.30;10.73;;;;;;;;;;4993590;28;20810;-78
2023/05/09 09:29:30;;;;;;;21.17;12.17;;;;;;;;;;4992890;28;20470;-78
2023/05/09 09:32:01;;;;;;;13.57;10.37;;;;;;;;;;4992227;28;20489;-78
2023/05/09 09:34:27;;;;;;;13.43;11.43;;;;;;;;;;4989427;28;20406;-78
2023/05/09 09:36:53;;;;;;;24.40;12.10;;;;;;;;;;4993711;28;20451;-78
2023/05/09 09:39:20;;;;;;;17.37;11.13;;;;;;;;;;4992852;28;20462;-78
2023/05/09 09:41:47;;;;;;;12.03;10.93;;;;;;;;;;5002516;28;20460;-78
2023/05/09 09:44:15;;;;;;;13.03;11.27;;;;;;;;;;4991851;28;20458;-78
2023/05/09 09:46:42;;;;;;;12.30;11.00;;;;;;;;;;4992302;28;20546;-78
2023/05/09 09:49:10;;;;;;;12.30;10.10;;;;;;;;;;4992184;28;20474;-78
2023/05/09 09:51:36;;;;;;;13.00;11.77;;;;;;;;;;4985436;28;20450;-78
2023/05/09 09:54:03;;;;;;;12.10;10.83;;;;;;;;;;4992872;28;20457;-78
2023/05/09 09:56:38;;;;;;;14.33;10.80;;;;;;;;;;4985299;28;20475;-78
2023/05/09 09:59:08;;;;;;;14.77;11.50;;;;;;;;;;4990427;28;20485;-77
2023/05/09 10:01:34;;;;;;;16.70;12.30;;;;;;;;;;4986570;28;20456;-78
2023/05/09 10:04:02;;;;;;;11.40;10.20;;;;;;;;;;4995248;28;20461;-78
2023/05/09 10:06:30;;;;;;;12.00;10.80;;;;;;;;;;4991751;28;20457;-78
2023/05/09 10:08:57;;;;;;;11.80;10.40;;;;;;;;;;4998590;28;20471;-78
2023/05/09 10:11:23;;;;;;;11.97;10.40;;;;;;;;;;4985206;28;20859;-78
2023/05/09 10:13:49;;;;;;;12.80;11.00;;;;;;;;;;4997163;28;20486;-78
2023/05/09 10:16:16;;;;;;;13.17;11.87;;;;;;;;;;4996281;28;20485;-78
2023/05/09 10:18:42;;;;;;;15.50;12.27;;;;;;;;;;4996976;28;20482;-78
2023/05/09 10:21:11;;;;;;;12.63;10.20;;;;;;;;;;4987687;28;20979;-78
2023/05/09 10:23:42;;;;;;;13.07;11.77;;;;;;;;;;4994690;28;20459;-78
2023/05/09 10:26:14;;;;;;;14.07;12.40;;;;;;;;;;4995267;28;20470;-78
2023/05/09 10:28:41;;;;;;;16.90;12.60;;;;;;;;;;4993747;28;20497;-78
2023/05/09 10:31:12;;;;;;;14.83;11.73;;;;;;;;;;4995897;28;20474;-78
2023/05/09 10:33:43;;;;;;;13.13;10.70;;;;;;;;;;4994886;28;20967;-78
2023/05/09 10:36:10;;;;;;;12.10;10.90;;;;;;;;;;4995557;28;20485;-78
2023/05/09 10:38:37;;;;;;;11.80;10.70;;;;;;;;;;5011026;28;20864;-78
2023/05/09 10:41:05;;;;;;;15.93;11.27;;;;;;;;;;4995797;28;20470;-78
2023/05/09 10:43:32;;;;;;;12.33;10.53;;;;;;;;;;4995945;28;20453;-78
2023/05/09 10:45:58;;;;;;;15.00;11.83;;;;;;;;;;4989544;28;20470;-78
2023/05/09 10:48:25;;;;;;;15.23;10.33;;;;;;;;;;4991332;28;20474;-78
2023/05/09 10:50:52;;;;;;;12.13;10.90;;;;;;;;;;4992695;28;20495;-78
2023/05/09 10:53:20;;;;;;;16.17;11.53;;;;;;;;;;4990750;28;20490;-78
2023/05/09 10:55:51;;;;;;;16.63;12.80;;;;;;;;;;4995890;28;20544;-78
2023/05/09 10:58:20;;;;;;;15.50;12.77;;;;;;;;;;4996111;28;20481;-78
2023/05/09 11:00:46;;;;;;;12.20;10.83;;;;;;;;;;4995602;28;20467;-78
2023/05/09 11:03:13;;;;;;;12.00;9.93;;;;;;;;;;4998168;28;20443;-78
2023/05/09 11:05:39;;;;;;;13.10;11.33;;;;;;;;;;4995396;28;20550;-78
2023/05/09 11:08:21;;;;;;;13.73;11.20;;;;;;;;;;4994022;28;20474;-78
2023/05/09 11:10:48;;;;;;;13.50;11.60;;;;;;;;;;4986230;28;20466;-78
2023/05/09 11:13:18;;;;;;;12.40;11.07;;;;;;;;;;4994728;28;21014;-78
2023/05/09 11:16:03;;;;;;;12.83;11.43;;;;;;;;;;4990936;28;20929;-78
2023/05/09 11:18:29;;;;;;;13.80;10.10;;;;;;;;;;4996259;28;20466;-77
2023/05/09 11:20:56;;;;;;;10.57;9.47;;;;;;;;;;4995084;28;20474;-77
2023/05/09 11:23:27;;;;;;;12.97;11.20;;;;;;;;;;4995409;28;20453;-78
2023/05/09 11:25:53;;;;;;;10.30;9.30;;;;;;;;;;4994154;28;20426;-78
2023/05/09 11:28:26;;;;;;;11.43;10.27;;;;;;;;;;4998161;28;20234;-78
2023/05/09 11:31:08;;;;;;;14.90;10.33;;;;;;;;;;4994673;28;20583;-78
2023/05/09 11:33:36;;;;;;;10.77;9.77;;;;;;;;;;4989862;28;20847;-78
2023/05/09 11:36:24;;;;;;;11.37;9.63;;;;;;;;;;5013694;28;20561;-78
2023/05/09 11:38:59;;;;;;;10.13;9.23;;;;;;;;;;5007236;28;20570;-79
2023/05/09 11:41:27;;;;;;;10.73;9.50;;;;;;;;;;5010385;28;20469;-79
2023/05/09 11:43:55;;;;;;;9.83;8.83;;;;;;;;;;5013778;28;20975;-78
2023/05/09 11:46:22;;;;;;;11.00;9.87;;;;;;;;;;5014114;28;20862;-77
2023/05/09 11:48:49;;;;;;;11.27;8.63;;;;;;;;;;5015087;28;20995;-78
2023/05/09 11:51:16;;;;;;;13.03;10.03;;;;;;;;;;5009069;28;20505;-78
2023/05/09 11:53:45;;;;;;;10.13;9.13;;;;;;;;;;4989172;28;20485;-78
2023/05/09 11:56:12;;;;;;;10.27;8.53;;;;;;;;;;5011460;28;20504;-79
2023/05/09 11:58:39;;;;;;;13.07;10.20;;;;;;;;;;5012956;28;20448;-77
2023/05/09 12:01:05;;;;;;;9.70;8.70;;;;;;;;;;5010826;28;20998;-78
2023/05/09 12:03:33;;;;;;;10.13;9.23;;;;;;;;;;5014337;28;20979;-78
2023/05/09 12:06:00;;;;;;;9.40;7.80;;;;;;;;;;5010034;28;20481;-77
2023/05/09 12:08:27;;;;;;;10.50;8.50;;;;;;;;;;5010702;28;20552;-77
2023/05/09 12:10:53;;;;;;;8.73;7.83;;;;;;;;;;5013742;28;20486;-78
2023/05/09 12:13:21;;;;;;;10.93;8.93;;;;;;;;;;5013542;28;20496;-78
2023/05/09 12:15:48;;;;;;;13.80;8.87;;;;;;;;;;5007637;28;20476;-78
2023/05/09 12:18:16;;;;;;;9.73;8.83;;;;;;;;;;5013581;28;20483;-77
2023/05/09 12:20:46;;;;;;;10.03;9.00;;;;;;;;;;5012746;28;20860;-78
2023/05/09 12:23:13;;;;;;;8.97;8.10;;;;;;;;;;5016320;28;20807;-78
2023/05/09 12:25:46;;;;;;;9.37;8.23;;;;;;;;;;5008864;28;20469;-78
2023/05/09 12:28:13;;;;;;;10.23;7.53;;;;;;;;;;5004679;28;20493;-78
2023/05/09 12:30:39;;;;;;;9.37;8.47;;;;;;;;;;5009709;28;20847;-77
2023/05/09 12:33:09;;;;;;;9.30;8.50;;;;;;;;;;5012641;28;20485;-79
2023/05/09 12:35:38;;;;;;;8.93;8.00;;;;;;;;;;5013069;28;20568;-78
2023/05/09 12:38:06;;;;;;;8.87;8.10;;;;;;;;;;5014142;28;20477;-79
2023/05/09 12:40:32;;;;;;;8.97;8.07;;;;;;;;;;5013130;28;20473;-78
2023/05/09 12:43:01;;;;;;;8.50;7.27;;;;;;;;;;5009625;28;20450;-78
2023/05/09 12:45:27;;;;;;;9.70;8.70;;;;;;;;;;5015683;28;20484;-78
2023/05/09 12:47:55;;;;;;;10.00;9.07;;;;;;;;;;5010321;28;20474;-78
2023/05/09 12:50:21;;;;;;;10.27;8.70;;;;;;;;;;5007823;28;20477;-78
2023/05/09 12:52:50;;;;;;;9.43;8.50;;;;;;;;;;5013651;28;20450;-78
2023/05/09 12:55:18;;;;;;;9.60;8.70;;;;;;;;;;5012027;28;20489;-78
2023/05/09 12:57:56;;;;;;;9.43;8.53;;;;;;;;;;5011771;28;20477;-78
2023/05/09 13:00:22;;;;;;;8.83;7.87;;;;;;;;;;4991216;28;20481;-78
2023/05/09 13:02:51;;;;;;;8.30;7.60;;;;;;;;;;4994218;28;20799;-78
2023/05/09 13:05:18;;;;;;;9.73;8.00;;;;;;;;;;5012812;28;20465;-78
2023/05/09 13:07:46;;;;;;;9.07;7.60;;;;;;;;;;5013419;28;20568;-78
2023/05/09 13:10:13;;;;;;;8.23;6.57;;;;;;;;;;5012813;28;20485;-78
2023/05/09 13:12:43;;;;;;;8.20;7.40;;;;;;;;;;5013537;28;20923;-78
2023/05/09 13:15:10;;;;;;;8.30;7.50;;;;;;;;;;5013017;28;20544;-78
2023/05/09 13:17:36;;;;;;;9.57;8.57;;;;;;;;;;5013745;28;20496;-79
2023/05/09 13:20:03;;;;;;;9.03;7.53;;;;;;;;;;5011948;28;20480;-77
2023/05/09 13:22:30;;;;;;;10.73;8.63;;;;;;;;;;5013140;28;20510;-78
2023/05/09 13:24:56;;;;;;;8.87;8.17;;;;;;;;;;5009099;28;20501;-78
2023/05/09 13:27:23;;;;;;;9.33;8.43;;;;;;;;;;5009577;28;20489;-78
2023/05/09 13:29:51;;;;;;;11.37;9.37;;;;;;;;;;5008872;28;20466;-78
2023/05/09 13:32:17;;;;;;;11.10;9.23;;;;;;;;;;5012686;28;20469;-78
2023/05/09 13:34:43;;;;;;;10.00;8.97;;;;;;;;;;5011389;28;20473;-78
2023/05/09 13:37:10;;;;;;;10.40;9.47;;;;;;;;;;5012816;28;20445;-78
2023/05/09 13:39:36;;;;;;;11.90;8.07;;;;;;;;;;5012662;28;20480;-78
2023/05/09 13:42:03;;;;;;;9.80;8.80;;;;;;;;;;5012752;28;20466;-78
2023/05/09 13:44:30;;;;;;;9.90;8.90;;;;;;;;;;5012304;28;20473;-78
2023/05/09 13:46:59;;;;;;;10.27;9.23;;;;;;;;;;5011781;28;20454;-78
2023/05/09 13:49:26;;;;;;;11.13;9.73;;;;;;;;;;5003052;28;20470;-78
2023/05/09 13:51:52;;;;;;;9.40;8.50;;;;;;;;;;5013188;28;20446;-78
2023/05/09 13:54:20;;;;;;;11.53;9.83;;;;;;;;;;5008822;28;20994;-79
2023/05/09 13:56:47;;;;;;;9.93;8.90;;;;;;;;;;5012848;28;20457;-78
2023/05/09 13:59:13;;;;;;;10.97;9.80;;;;;;;;;;5007447;28;20485;-79
2023/05/09 14:01:40;;;;;;;9.00;8.10;;;;;;;;;;5011322;28;20469;-78
2023/05/09 14:04:07;;;;;;;10.07;9.07;;;;;;;;;;5013021;28;20458;-78
2023/05/09 14:06:34;;;;;;;9.10;8.30;;;;;;;;;;5012001;28;20474;-78
2023/05/09 14:09:00;;;;;;;9.23;8.23;;;;;;;;;;5012104;28;20539;-78
2023/05/09 14:11:27;;;;;;;8.47;7.63;;;;;;;;;;4998497;28;20485;-78
2023/05/09 14:13:53;;;;;;;9.87;8.97;;;;;;;;;;5014306;28;20496;-79
2023/05/09 14:16:20;;;;;;;9.77;8.97;;;;;;;;;;5009381;28;21028;-79
2023/05/09 14:18:46;;;;;;;11.17;9.93;;;;;;;;;;5012514;28;20470;-80
2023/05/09 14:21:14;;;;;;;9.30;8.50;;;;;;;;;;5010042;28;20528;-79
2023/05/09 14:23:41;;;;;;;12.30;8.97;;;;;;;;;;5012718;28;20485;-79
2023/05/09 14:26:07;;;;;;;9.90;9.00;;;;;;;;;;5000427;28;20481;-78
2023/05/09 14:28:37;;;;;;;8.50;7.80;;;;;;;;;;5012151;28;20492;-78
2023/05/09 14:31:03;;;;;;;9.10;8.20;;;;;;;;;;5015860;28;21003;-78
2023/05/09 14:33:29;;;;;;;8.73;8.03;;;;;;;;;;5012435;28;20508;-79
2023/05/09 14:35:56;;;;;;;8.40;7.37;;;;;;;;;;5009456;28;20466;-78